createdAt,value
2022-10-22T00:04:10.302Z,77.02
2022-10-22T00:09:16.340Z,77.22
2022-10-22T00:14:20.582Z,77.00
2022-10-22T00:19:24.353Z,77.68
2022-10-22T00:24:29.139Z,77.64
2022-10-22T00:29:32.779Z,77.75
2022-10-22T00:34:36.165Z,77.46
2022-10-22T00:39:41.009Z,77.38
2022-10-22T00:45:16.713Z,76.96
2022-10-22T00:50:24.455Z,77.40
2022-10-22T00:55:30.798Z,77.36
2022-10-22T01:00:34.322Z,77.13
2022-10-22T01:05:44.119Z,77.35
2022-10-22T01:10:54.527Z,78.06
2022-10-22T01:16:05.379Z,78.61
2022-10-22T01:21:21.485Z,78.48
2022-10-22T01:26:38.081Z,78.18
2022-10-22T01:31:47.833Z,78.80
2022-10-22T01:36:52.709Z,79.01
2022-10-22T01:41:57.104Z,79.32
2022-10-22T01:47:16.282Z,79.13
2022-10-22T01:52:32.447Z,79.56
2022-10-22T01:57:45.058Z,79.82
2022-10-22T02:02:57.091Z,79.42
2022-10-22T02:08:03.980Z,80.02
2022-10-22T02:13:11.210Z,80.15
2022-10-22T02:18:17.222Z,79.63
2022-10-22T02:23:22.061Z,79.40
2022-10-22T02:28:30.404Z,79.87
2022-10-22T02:33:38.386Z,81.11
2022-10-22T02:38:43.096Z,80.44
2022-10-22T02:43:51.302Z,80.82
2022-10-22T02:48:56.130Z,81.04
2022-10-22T02:53:59.435Z,81.55
2022-10-22T02:59:02.789Z,81.04
2022-10-22T03:04:25.795Z,80.86
2022-10-22T03:09:29.239Z,80.64
2022-10-22T03:14:32.599Z,80.37
2022-10-22T03:19:37.425Z,80.39
2022-10-22T03:24:45.412Z,80.27
2022-10-22T03:29:52.094Z,80.20
2022-10-22T03:34:56.855Z,80.84
2022-10-22T03:40:00.376Z,81.58
2022-10-22T03:45:04.002Z,80.94
2022-10-22T03:50:10.245Z,81.25
2022-10-22T03:55:13.622Z,81.80
2022-10-22T04:00:17.456Z,81.54
2022-10-22T04:05:22.153Z,81.93
2022-10-22T04:10:25.489Z,81.03
2022-10-22T04:15:29.180Z,81.06
2022-10-22T04:20:33.903Z,80.83
2022-10-22T04:25:37.741Z,80.73
2022-10-22T04:30:41.102Z,81.71
2022-10-22T04:35:45.814Z,81.69
2022-10-22T04:40:49.177Z,81.06
2022-10-22T04:45:52.543Z,80.92
2022-10-22T04:50:58.514Z,81.30
2022-10-22T04:56:09.483Z,82.01
2022-10-22T05:01:14.997Z,81.96
2022-10-22T05:06:21.035Z,81.90
2022-10-22T05:11:27.898Z,82.08
2022-10-22T05:16:31.805Z,82.47
2022-10-22T05:21:38.608Z,81.94
2022-10-22T05:26:42.314Z,82.14
2022-10-22T05:31:45.724Z,82.53
2022-10-22T05:36:50.571Z,82.85
2022-10-22T05:41:54.508Z,83.55
2022-10-22T05:46:57.913Z,83.64
2022-10-22T05:52:02.798Z,83.01
2022-10-22T05:57:06.120Z,82.79
2022-10-22T06:02:10.602Z,82.26
2022-10-22T06:07:17.487Z,81.82
2022-10-22T06:12:20.922Z,81.80
2022-10-22T06:17:24.310Z,81.42
2022-10-22T06:22:29.050Z,80.27
2022-10-22T06:27:32.668Z,79.96
2022-10-22T06:32:35.996Z,78.72
2022-10-22T06:37:40.986Z,79.51
2022-10-22T06:42:44.781Z,79.14
2022-10-22T06:47:49.010Z,78.53
2022-10-22T06:52:53.910Z,66.68
2022-10-22T06:57:57.509Z,63.15
2022-10-22T07:03:00.859Z,68.93
2022-10-22T07:08:06.270Z,72.58
2022-10-22T07:13:09.636Z,72.82
2022-10-22T07:18:12.988Z,74.90
2022-10-22T07:23:18.555Z,74.96
2022-10-22T07:28:22.236Z,75.01
2022-10-22T07:33:25.585Z,74.88
2022-10-22T07:38:31.709Z,74.77
2022-10-22T07:43:35.058Z,74.90
2022-10-22T07:48:38.580Z,74.37
2022-10-22T07:53:43.546Z,74.92
2022-10-22T07:58:47.071Z,74.67
2022-10-22T08:03:51.190Z,73.85
2022-10-22T08:08:55.950Z,72.95
2022-10-22T08:13:59.483Z,73.17
2022-10-22T08:19:02.813Z,73.43
2022-10-22T08:24:08.792Z,72.90
2022-10-22T08:29:12.540Z,73.44
2022-10-22T08:34:15.904Z,73.31
2022-10-22T08:39:20.649Z,72.84
2022-10-22T08:44:43.923Z,71.82
2022-10-22T08:49:47.698Z,72.22
2022-10-22T08:54:56.078Z,72.36
2022-10-22T09:00:04.389Z,72.77
2022-10-22T09:05:23.308Z,73.89
2022-10-22T09:10:33.819Z,73.08
2022-10-22T09:15:37.163Z,73.27
2022-10-22T09:20:46.618Z,73.99
2022-10-22T09:25:52.752Z,75.11
2022-10-22T09:36:07.806Z,76.32
2022-10-22T09:41:13.179Z,75.04
2022-10-22T09:46:18.777Z,75.68
2022-10-22T09:51:24.543Z,75.08
2022-10-22T09:56:35.774Z,76.06
2022-10-22T10:01:40.907Z,75.98
2022-10-22T10:06:45.824Z,76.21
2022-10-22T10:12:00.987Z,76.39
2022-10-22T10:17:13.179Z,77.51
2022-10-22T10:22:29.216Z,78.05
2022-10-22T10:27:41.255Z,77.72
2022-10-22T10:32:56.740Z,78.83
2022-10-22T10:38:17.008Z,78.39
2022-10-22T10:43:30.845Z,78.98
2022-10-22T10:48:50.177Z,79.64
2022-10-22T10:54:06.827Z,78.72
2022-10-22T10:59:30.046Z,78.13
2022-10-22T11:04:59.820Z,77.71
2022-10-22T11:10:11.318Z,79.71
2022-10-22T11:15:26.702Z,81.43
2022-10-22T11:20:39.181Z,81.32
2022-10-22T11:25:46.655Z,80.83
2022-10-22T11:30:59.326Z,80.46
2022-10-22T11:36:05.020Z,81.24
2022-10-22T11:41:13.758Z,81.23
2022-10-22T11:46:35.749Z,82.13
2022-10-22T11:51:41.179Z,82.86
2022-10-22T11:56:44.859Z,83.38
2022-10-22T12:01:49.761Z,83.27
2022-10-22T12:07:02.424Z,84.11
2022-10-22T12:12:14.797Z,85.56
2022-10-22T12:17:23.196Z,86.56
2022-10-22T12:22:29.539Z,86.98
2022-10-22T12:27:37.891Z,88.15
2022-10-22T12:32:42.787Z,89.57
2022-10-22T12:37:50.307Z,89.85
2022-10-22T12:42:55.920Z,91.72
2022-10-22T12:48:04.077Z,91.38
2022-10-22T12:53:14.791Z,91.73
2022-10-22T12:58:20.301Z,91.66
2022-10-22T13:03:30.907Z,91.81
2022-10-22T13:08:35.537Z,90.52
2022-10-22T13:13:45.921Z,91.47
2022-10-22T13:18:52.350Z,91.06
2022-10-22T13:23:58.628Z,90.41
2022-10-22T13:29:03.915Z,90.90
2022-10-22T13:34:16.415Z,93.44
2022-10-22T13:39:23.003Z,96.18
2022-10-22T13:44:26.518Z,98.01
2022-10-22T13:49:31.336Z,99.18
2022-10-22T13:54:35.243Z,100.00
2022-10-22T13:59:38.807Z,100.00
2022-10-22T14:04:44.851Z,100.00
2022-10-22T14:09:48.281Z,100.00
2022-10-22T14:14:51.772Z,100.00
2022-10-22T14:19:56.540Z,100.00
2022-10-22T14:24:59.881Z,100.00
2022-10-22T14:30:03.551Z,100.00
2022-10-22T14:35:13.292Z,100.00
2022-10-22T14:40:23.458Z,100.00
2022-10-22T14:45:28.332Z,100.00
2022-10-22T14:50:33.102Z,100.00
2022-10-22T14:55:36.766Z,100.00
2022-10-22T15:00:41.954Z,100.00
2022-10-22T15:05:46.921Z,100.00
2022-10-22T15:10:59.948Z,100.00
2022-10-22T15:16:07.738Z,100.00
2022-10-22T15:21:16.774Z,100.00
2022-10-22T15:26:20.345Z,100.00
2022-10-22T15:31:48.518Z,100.00
2022-10-22T15:36:56.393Z,100.00
2022-10-22T15:42:00.901Z,100.00
2022-10-22T15:47:06.444Z,100.00
2022-10-22T15:52:11.326Z,100.00
2022-10-22T15:57:14.717Z,100.00
2022-10-22T16:02:18.285Z,100.00
2022-10-22T16:07:24.710Z,100.00
2022-10-22T16:12:28.609Z,100.00
2022-10-22T16:17:31.996Z,100.00
2022-10-22T16:22:36.759Z,100.00
2022-10-22T16:27:40.504Z,100.00
2022-10-22T16:32:43.987Z,100.00
2022-10-22T16:37:48.982Z,100.00
2022-10-22T16:42:52.878Z,100.00
2022-10-22T16:47:56.259Z,100.00
2022-10-22T16:53:00.996Z,100.00
2022-10-22T16:58:04.566Z,100.00
2022-10-22T17:03:08.079Z,100.00
2022-10-22T17:08:12.848Z,100.00
2022-10-22T17:13:16.243Z,100.00
2022-10-22T17:18:19.626Z,100.00
2022-10-22T17:23:24.366Z,100.00
2022-10-22T17:28:28.156Z,100.00
2022-10-22T17:33:32.537Z,100.00
2022-10-22T17:38:37.495Z,100.00
2022-10-22T17:43:41.271Z,100.00
2022-10-22T17:48:44.685Z,100.00
2022-10-22T17:53:50.788Z,100.00
2022-10-22T17:58:54.786Z,100.00
2022-10-22T18:04:01.667Z,100.00
2022-10-22T18:09:07.548Z,100.00
2022-10-22T18:14:11.035Z,100.00
2022-10-22T18:19:16.622Z,100.00
2022-10-22T18:24:21.396Z,100.00
2022-10-22T18:29:24.764Z,100.00
2022-10-22T18:34:29.345Z,100.00
2022-10-22T18:39:35.521Z,100.00
2022-10-22T18:44:39.124Z,100.00
2022-10-22T18:49:42.577Z,100.00
2022-10-22T18:54:47.458Z,100.00
2022-10-22T18:59:52.027Z,100.00
2022-10-22T19:04:57.100Z,100.00
2022-10-22T19:10:01.890Z,100.00
2022-10-22T19:15:05.994Z,100.00
2022-10-22T19:20:10.515Z,100.00
2022-10-22T19:25:15.306Z,100.00
2022-10-22T19:30:20.296Z,100.00
2022-10-22T19:35:23.701Z,100.00
2022-10-22T19:40:28.458Z,100.00
2022-10-22T19:45:32.041Z,100.00
2022-10-22T19:50:36.027Z,100.00
2022-10-22T19:55:45.203Z,100.00
2022-10-22T20:00:49.218Z,100.00
2022-10-22T20:05:53.138Z,100.00
2022-10-22T20:10:58.127Z,100.00
2022-10-22T20:16:02.054Z,100.00
2022-10-22T20:21:06.034Z,100.00
2022-10-22T20:26:11.203Z,100.00
2022-10-22T20:31:17.405Z,100.00
2022-10-22T20:36:22.860Z,100.00
2022-10-22T20:41:30.921Z,100.00
2022-10-22T20:46:35.157Z,100.00
2022-10-22T20:51:39.175Z,100.00
2022-10-22T20:56:44.384Z,100.00
2022-10-22T21:01:49.378Z,100.00
2022-10-22T21:06:53.589Z,100.00
2022-10-22T21:12:03.213Z,100.00
2022-10-22T21:17:08.209Z,100.00
2022-10-22T21:22:11.623Z,100.00
2022-10-22T21:27:16.365Z,100.00
2022-10-22T21:32:19.866Z,100.00
2022-10-22T21:37:23.475Z,100.00
2022-10-22T21:42:28.462Z,100.00
2022-10-22T21:47:31.924Z,100.00
2022-10-22T21:52:35.362Z,100.00
2022-10-22T21:57:40.465Z,100.00
2022-10-22T22:02:44.203Z,100.00
2022-10-22T22:07:47.753Z,100.00
2022-10-22T22:12:56.317Z,100.00
2022-10-22T22:17:59.731Z,100.00
2022-10-22T22:23:03.141Z,100.00
2022-10-22T22:28:07.955Z,100.00
2022-10-22T22:33:11.296Z,100.00
2022-10-22T22:38:14.646Z,100.00
2022-10-22T22:43:19.416Z,100.00
2022-10-22T22:48:22.755Z,100.00
2022-10-22T22:53:26.158Z,100.00
2022-10-22T22:58:30.887Z,100.00
2022-10-22T23:03:34.268Z,100.00
2022-10-22T23:08:37.740Z,100.00
2022-10-22T23:13:43.569Z,100.00
2022-10-22T23:18:48.673Z,100.00
2022-10-22T23:23:55.437Z,100.00
2022-10-22T23:29:05.146Z,100.00
2022-10-22T23:34:08.724Z,100.00
2022-10-22T23:39:13.985Z,100.00
2022-10-22T23:44:18.855Z,100.00
2022-10-22T23:49:22.357Z,100.00
2022-10-22T23:54:25.735Z,100.00
2022-10-22T23:59:30.749Z,100.00
